CFF9 weather

Marek Farms Airport
Marek Farms, Alberta, Canada

Public forecast

Using degrees Celsius for public forecast. Weather courtesy of forecast.io.

METAR (pilot weather report)

Closest report is Edmonton International Airport, 33.4 nm (61.8 km) WNW. Retrieved 2019/07/18 18:00 UTC (43 minutes ago):

CYEG 181800Z CCA 23016KT 3SM -SHRA BR BKN018 OVC025 10/09 A2958 RMK SC7SC1 CVCTV CLD EMBD SLP026 DENSITY ALT 2800FT

TAF (pilot weather forecast)

Closest forecast is Edmonton International Airport, 33.4 nm (61.8 km) WNW. Retrieved 2019/07/18 18:42 UTC (33 seconds ago):

TAF TAF CYEG 181738Z 1818/1918 25015G25KT P6SM -SHRA BKN025 OVC040 TEMPO 1818/1820 VRB20G30KT 4SM TSRA BR BKN020 OVC040CB FM182000 28018G28KT P6SM -SHRA SCT012 OVC025 TEMPO 1820/1904 4SM -SHRA BR OVC008 FM190400 27012G22KT P6SM SCT012 OVC025 TEMPO 1904/1910 4SM -SHRA BR BKN008 OVC015 FM191000 27012KT 4SM -SHRA BR SCT006 OVC012 TEMPO 1910/1918 2SM -SHRA BR OVC006 RMK NXT FCST BY 182100Z